createdAt,value
2018-08-22T00:00:29.658Z,4.93
2018-08-22T00:02:58.123Z,4.80
2018-08-22T00:05:26.560Z,5.07
2018-08-22T00:07:55.102Z,5.27
2018-08-22T00:10:23.543Z,4.80
2018-08-22T00:12:52.678Z,4.60
2018-08-22T00:15:21.115Z,5.30
2018-08-22T00:17:49.563Z,5.13
2018-08-22T00:20:18.071Z,4.70
2018-08-22T00:22:46.522Z,5.20
2018-08-22T00:25:15.079Z,5.40
2018-08-22T00:27:43.505Z,4.63
2018-08-22T00:30:11.986Z,5.20
2018-08-22T00:32:40.459Z,5.40
2018-08-22T00:35:09.013Z,4.97
2018-08-22T00:37:37.437Z,4.70
2018-08-22T00:40:06.015Z,5.53
2018-08-22T00:42:34.485Z,5.00
2018-08-22T00:45:02.934Z,4.83
2018-08-22T00:47:31.378Z,5.20
2018-08-22T00:50:00.128Z,4.43
2018-08-22T00:52:28.598Z,4.07
2018-08-22T00:54:57.063Z,4.93
2018-08-22T00:57:25.478Z,4.40
2018-08-22T00:59:54.244Z,4.73
2018-08-22T01:02:22.706Z,4.50
2018-08-22T01:04:51.218Z,4.60
2018-08-22T01:07:19.693Z,4.90
2018-08-22T01:09:48.194Z,4.20
2018-08-22T01:12:16.653Z,5.07
2018-08-22T01:14:45.144Z,5.10
2018-08-22T01:17:13.603Z,5.00
2018-08-22T01:19:42.103Z,5.20
2018-08-22T01:22:10.555Z,4.70
2018-08-22T01:24:39.103Z,5.30
2018-08-22T01:27:07.622Z,5.00
2018-08-22T01:29:36.094Z,5.03
2018-08-22T01:32:04.555Z,5.27
2018-08-22T01:34:33.034Z,5.40
2018-08-22T01:37:01.484Z,5.73
2018-08-22T01:39:29.966Z,4.90
2018-08-22T01:41:58.427Z,5.10
2018-08-22T01:44:26.922Z,5.00
2018-08-22T01:46:55.398Z,5.20
2018-08-22T01:49:23.878Z,5.40
2018-08-22T01:51:52.327Z,5.97
2018-08-22T01:54:20.804Z,5.20
2018-08-22T01:56:49.262Z,5.10
2018-08-22T01:59:17.779Z,5.50
2018-08-22T02:01:46.307Z,5.57
2018-08-22T02:04:14.787Z,6.07
2018-08-22T02:06:43.270Z,5.60
2018-08-22T02:09:12.776Z,5.20
2018-08-22T02:11:41.604Z,5.40
2018-08-22T02:14:11.133Z,5.90
2018-08-22T02:16:39.587Z,5.73
2018-08-22T02:19:09.193Z,5.67
2018-08-22T02:21:37.987Z,5.33
2018-08-22T02:24:06.573Z,5.43
2018-08-22T02:26:35.333Z,6.17
2018-08-22T02:29:03.862Z,7.43
2018-08-22T02:31:32.352Z,6.60
2018-08-22T02:34:00.840Z,5.73
2018-08-22T02:36:29.286Z,5.40
2018-08-22T02:38:57.771Z,6.20
2018-08-22T02:41:26.247Z,5.87
2018-08-22T02:43:54.762Z,5.47
2018-08-22T02:46:23.228Z,5.83
2018-08-22T02:48:55.374Z,6.20
2018-08-22T02:51:24.539Z,6.20
2018-08-22T02:53:53.111Z,6.10
2018-08-22T02:56:22.003Z,5.70
2018-08-22T02:58:50.939Z,5.97
2018-08-22T03:01:19.571Z,5.97
2018-08-22T03:03:48.020Z,5.07
2018-08-22T03:06:16.506Z,5.50
2018-08-22T03:08:44.960Z,5.40
2018-08-22T03:11:13.453Z,5.87
2018-08-22T03:13:41.914Z,5.33
2018-08-22T03:16:10.398Z,5.40
2018-08-22T03:18:38.849Z,5.70
2018-08-22T03:21:07.327Z,6.00
2018-08-22T03:23:35.784Z,5.60
2018-08-22T03:26:04.285Z,5.37
2018-08-22T03:28:33.078Z,5.70
2018-08-22T03:31:01.556Z,6.37
2018-08-22T03:33:30.040Z,6.03
2018-08-22T03:35:58.814Z,5.53
2018-08-22T03:38:27.291Z,5.70
2018-08-22T03:40:55.821Z,5.83
2018-08-22T03:43:24.259Z,5.57
2018-08-22T03:45:52.725Z,5.30
2018-08-22T03:48:21.171Z,5.90
2018-08-22T03:50:49.634Z,5.83
2018-08-22T03:53:18.073Z,6.10
2018-08-22T03:55:46.588Z,5.77
2018-08-22T03:58:15.051Z,5.53
2018-08-22T04:00:43.490Z,6.67
2018-08-22T04:03:11.904Z,5.87
2018-08-22T04:05:40.318Z,5.63
2018-08-22T04:08:08.730Z,6.17
2018-08-22T04:10:37.162Z,6.10
2018-08-22T04:13:05.558Z,6.10
2018-08-22T04:15:33.996Z,6.27
2018-08-22T04:18:02.397Z,5.27
2018-08-22T04:20:30.822Z,5.50
2018-08-22T04:22:59.238Z,6.17
2018-08-22T04:25:27.655Z,6.27
2018-08-22T04:27:56.057Z,5.40
2018-08-22T04:30:24.491Z,6.93
2018-08-22T04:32:52.924Z,5.80
2018-08-22T04:35:21.351Z,5.80
2018-08-22T04:37:49.930Z,5.60
2018-08-22T04:40:18.476Z,6.57
2018-08-22T04:42:46.970Z,5.90
2018-08-22T04:45:15.416Z,5.90
2018-08-22T04:47:43.891Z,5.97
2018-08-22T04:50:12.326Z,6.00
2018-08-22T04:52:40.727Z,7.33
2018-08-22T04:55:09.171Z,10.80
2018-08-22T04:57:37.603Z,8.97
2018-08-22T05:00:07.282Z,6.07
2018-08-22T05:02:35.763Z,6.97
2018-08-22T05:05:04.372Z,6.67
2018-08-22T05:07:32.847Z,5.93
2018-08-22T05:10:01.332Z,6.70
2018-08-22T05:12:29.887Z,5.70
2018-08-22T05:14:58.386Z,6.17
2018-08-22T05:17:26.884Z,6.93
2018-08-22T05:19:55.378Z,6.57
2018-08-22T05:22:23.838Z,6.10
2018-08-22T05:24:52.392Z,5.67
2018-08-22T05:27:20.790Z,6.40
2018-08-22T05:29:49.267Z,6.30
2018-08-22T05:32:17.764Z,6.13
2018-08-22T05:34:46.263Z,5.67
2018-08-22T05:37:14.730Z,6.10
2018-08-22T05:39:43.224Z,5.40
2018-08-22T05:42:11.703Z,5.90
2018-08-22T05:44:40.154Z,5.70
2018-08-22T05:47:09.350Z,5.63
2018-08-22T05:49:37.802Z,5.53
2018-08-22T05:52:06.320Z,5.60
2018-08-22T05:54:34.786Z,6.30
2018-08-22T05:57:03.258Z,6.23
2018-08-22T05:59:31.750Z,5.53
2018-08-22T06:02:00.252Z,5.80
2018-08-22T06:04:28.726Z,5.93
2018-08-22T06:06:57.218Z,6.63
2018-08-22T06:09:25.681Z,5.87
2018-08-22T06:11:54.166Z,5.60
2018-08-22T06:14:22.612Z,5.50
2018-08-22T06:16:51.082Z,6.30
2018-08-22T06:19:19.555Z,7.10
2018-08-22T06:21:48.043Z,7.00
2018-08-22T06:24:16.512Z,6.40
2018-08-22T06:26:45.001Z,9.80
2018-08-22T06:29:13.447Z,7.40
2018-08-22T06:31:41.926Z,6.13
2018-08-22T06:34:10.397Z,6.00
2018-08-22T06:36:38.920Z,7.07
2018-08-22T06:39:08.761Z,6.20
2018-08-22T06:41:37.583Z,6.10
2018-08-22T06:44:06.089Z,6.60
2018-08-22T06:46:34.567Z,6.77
2018-08-22T06:49:03.040Z,5.53
2018-08-22T06:51:31.545Z,5.30
2018-08-22T06:54:00.007Z,5.40
2018-08-22T06:56:28.499Z,5.57
2018-08-22T06:58:56.954Z,5.70
2018-08-22T07:01:25.419Z,5.30
2018-08-22T07:03:53.827Z,6.03
2018-08-22T07:06:22.258Z,5.90
2018-08-22T07:08:50.678Z,6.10
2018-08-22T07:11:19.190Z,7.30
2018-08-22T07:13:47.652Z,6.00
2018-08-22T07:16:16.130Z,6.20
2018-08-22T07:18:44.936Z,5.80
2018-08-22T07:21:13.419Z,6.97
2018-08-22T07:23:41.946Z,5.97
2018-08-22T07:26:10.432Z,5.30
2018-08-22T07:28:38.952Z,5.50
2018-08-22T07:31:07.418Z,5.80
2018-08-22T07:33:35.899Z,4.90
2018-08-22T07:36:04.422Z,5.40
2018-08-22T07:38:32.912Z,4.70
2018-08-22T07:41:01.391Z,5.47
2018-08-22T07:43:29.867Z,5.63
2018-08-22T07:45:58.327Z,5.40
2018-08-22T07:48:26.803Z,5.47
2018-08-22T07:50:55.273Z,4.83
2018-08-22T07:53:23.825Z,5.60
2018-08-22T07:55:52.275Z,5.57
2018-08-22T07:58:20.758Z,4.80
2018-08-22T08:00:49.244Z,4.90
2018-08-22T08:03:17.751Z,5.10
2018-08-22T08:05:46.217Z,6.10
2018-08-22T08:08:14.728Z,5.23
2018-08-22T08:10:43.930Z,5.40
2018-08-22T08:13:17.924Z,5.67
2018-08-22T08:15:46.392Z,4.67
2018-08-22T08:18:14.871Z,5.20
2018-08-22T08:20:43.335Z,5.13
2018-08-22T08:23:11.809Z,5.20
2018-08-22T08:25:40.267Z,6.00
2018-08-22T08:28:08.779Z,4.70
2018-08-22T08:30:37.343Z,4.70
2018-08-22T08:33:05.814Z,5.27
2018-08-22T08:35:34.323Z,5.40
2018-08-22T08:38:02.794Z,5.37
2018-08-22T08:40:31.255Z,5.33
2018-08-22T08:42:59.843Z,4.90
2018-08-22T08:45:28.304Z,4.70
2018-08-22T08:47:56.785Z,6.10
2018-08-22T08:50:25.246Z,5.10
2018-08-22T08:52:53.744Z,4.97
2018-08-22T08:55:22.212Z,4.60
2018-08-22T08:57:50.706Z,5.20
2018-08-22T09:00:19.212Z,5.10
2018-08-22T09:02:47.699Z,4.40
2018-08-22T09:05:16.152Z,5.30
2018-08-22T09:07:44.627Z,4.43
2018-08-22T09:10:13.136Z,4.73
2018-08-22T09:12:41.623Z,5.40
2018-08-22T09:15:10.077Z,5.00
2018-08-22T09:17:38.576Z,5.17
2018-08-22T09:20:07.846Z,5.13
2018-08-22T09:22:36.446Z,4.47
2018-08-22T09:25:04.940Z,5.20
2018-08-22T09:27:33.422Z,4.37
2018-08-22T09:30:01.907Z,5.23
2018-08-22T09:32:30.386Z,4.77
2018-08-22T09:34:58.862Z,4.70
2018-08-22T09:37:27.322Z,5.60
2018-08-22T09:39:56.152Z,4.40
2018-08-22T09:42:24.627Z,4.77
2018-08-22T09:44:53.124Z,4.70
2018-08-22T09:47:21.601Z,4.73
2018-08-22T09:49:50.873Z,5.57
2018-08-22T09:52:19.345Z,5.30
2018-08-22T09:55:00.091Z,4.83
2018-08-22T09:57:29.344Z,4.60
2018-08-22T09:59:57.890Z,4.50
2018-08-22T10:02:26.350Z,5.50
2018-08-22T10:04:55.226Z,4.60
2018-08-22T10:07:24.052Z,5.00
2018-08-22T10:09:52.656Z,4.97
2018-08-22T10:12:21.059Z,4.80
2018-08-22T10:14:50.682Z,4.57
2018-08-22T10:17:19.153Z,4.90
2018-08-22T10:19:47.631Z,4.80
2018-08-22T10:22:16.161Z,4.80
2018-08-22T10:24:44.656Z,4.90
2018-08-22T10:27:13.126Z,4.80
2018-08-22T10:29:41.611Z,4.73
2018-08-22T10:32:10.074Z,4.30
2018-08-22T10:34:38.577Z,4.87
2018-08-22T10:37:07.039Z,4.50
2018-08-22T10:39:35.572Z,5.33
2018-08-22T10:42:03.999Z,5.30
2018-08-22T10:44:32.550Z,4.63
2018-08-22T10:47:01.040Z,4.47
2018-08-22T10:49:29.557Z,4.80
2018-08-22T10:51:58.038Z,4.47
2018-08-22T10:54:26.520Z,5.00
2018-08-22T10:56:54.997Z,4.80
2018-08-22T10:59:23.454Z,4.60
2018-08-22T11:01:51.875Z,4.60
2018-08-22T11:04:20.312Z,4.37
2018-08-22T11:06:48.726Z,4.70
2018-08-22T11:09:17.174Z,4.37
2018-08-22T11:11:45.574Z,4.70
2018-08-22T11:14:14.022Z,4.20
2018-08-22T11:16:42.761Z,4.70
2018-08-22T11:19:11.263Z,3.87
2018-08-22T11:21:51.003Z,4.87
2018-08-22T11:24:30.660Z,4.70
2018-08-22T11:27:10.235Z,4.27
2018-08-22T11:29:49.983Z,4.27
2018-08-22T11:32:29.694Z,3.87
2018-08-22T11:34:57.060Z,4.17
2018-08-22T11:37:25.485Z,3.70
2018-08-22T11:39:53.918Z,4.27
2018-08-22T11:42:22.363Z,4.40
2018-08-22T11:44:50.803Z,4.50
2018-08-22T11:47:19.217Z,4.70
2018-08-22T11:49:47.675Z,4.13
2018-08-22T11:52:16.122Z,4.40
2018-08-22T11:54:44.562Z,4.23
2018-08-22T11:57:13.044Z,4.57
2018-08-22T11:59:41.528Z,4.60
2018-08-22T12:02:09.946Z,4.97
2018-08-22T12:04:38.398Z,4.53
2018-08-22T12:07:06.822Z,4.67
2018-08-22T12:09:35.255Z,3.80
2018-08-22T12:12:03.711Z,4.60
2018-08-22T12:14:32.171Z,4.03
2018-08-22T12:17:00.610Z,4.23
2018-08-22T12:19:29.049Z,4.63
2018-08-22T12:21:57.507Z,4.87
2018-08-22T12:24:25.922Z,4.33
2018-08-22T12:26:54.363Z,4.53
2018-08-22T12:29:22.784Z,4.50
2018-08-22T12:31:51.268Z,4.37
2018-08-22T12:34:19.722Z,5.50
2018-08-22T12:36:48.187Z,4.40
2018-08-22T12:39:16.623Z,4.53
2018-08-22T12:41:45.088Z,5.20
2018-08-22T12:44:13.515Z,3.97
2018-08-22T12:46:41.992Z,4.00
2018-08-22T12:49:10.447Z,5.00
2018-08-22T12:51:38.898Z,5.03
2018-08-22T12:54:07.355Z,3.90
2018-08-22T12:56:36.075Z,4.33
2018-08-22T12:59:04.520Z,4.70
2018-08-22T13:01:35.636Z,4.33
2018-08-22T13:04:04.530Z,4.33
2018-08-22T13:06:32.983Z,4.70
2018-08-22T13:09:01.441Z,4.67
2018-08-22T13:11:30.103Z,4.70
2018-08-22T13:13:58.511Z,4.03
2018-08-22T13:16:26.950Z,4.20
2018-08-22T13:18:55.395Z,4.87
2018-08-22T13:21:23.844Z,4.30
2018-08-22T13:23:52.267Z,3.80
2018-08-22T13:26:20.710Z,3.40
2018-08-22T13:28:49.153Z,3.80
2018-08-22T13:31:17.614Z,3.67
2018-08-22T13:33:46.035Z,3.63
2018-08-22T13:36:14.531Z,3.63
2018-08-22T13:38:42.945Z,3.50
2018-08-22T13:41:11.424Z,4.07
2018-08-22T13:43:39.863Z,3.30
2018-08-22T13:46:08.311Z,3.90
2018-08-22T13:48:36.744Z,3.43
2018-08-22T13:51:05.197Z,3.37
2018-08-22T13:53:33.651Z,4.37
2018-08-22T13:56:02.163Z,3.77
2018-08-22T13:58:30.519Z,3.87
2018-08-22T14:00:59.035Z,3.73
2018-08-22T14:03:27.463Z,3.63
2018-08-22T14:05:55.909Z,3.27
2018-08-22T14:08:24.327Z,3.27
2018-08-22T14:10:52.777Z,3.10
2018-08-22T14:13:21.192Z,3.33
2018-08-22T14:15:49.662Z,4.27
2018-08-22T14:18:18.078Z,3.30
2018-08-22T14:20:46.495Z,3.20
2018-08-22T14:23:14.936Z,3.03
2018-08-22T14:25:43.341Z,3.43
2018-08-22T14:28:11.806Z,3.57
2018-08-22T14:30:40.252Z,4.03
2018-08-22T14:33:08.952Z,3.30
2018-08-22T14:35:37.474Z,3.33
2018-08-22T14:38:06.133Z,3.10
2018-08-22T14:40:34.661Z,5.30
2018-08-22T14:43:03.964Z,2.87
2018-08-22T14:45:32.373Z,3.00
2018-08-22T14:48:00.811Z,3.50
2018-08-22T14:50:29.233Z,3.40
2018-08-22T14:52:57.694Z,3.20
2018-08-22T14:55:26.115Z,3.50
2018-08-22T14:57:54.548Z,3.67
2018-08-22T15:00:22.999Z,3.50
2018-08-22T15:02:51.687Z,3.07
2018-08-22T15:05:20.198Z,3.80
2018-08-22T15:07:48.643Z,3.27
2018-08-22T15:10:18.171Z,2.50
2018-08-22T15:12:47.363Z,2.80
2018-08-22T15:15:15.742Z,2.80
2018-08-22T15:17:44.442Z,3.23
2018-08-22T15:20:12.884Z,2.67
2018-08-22T15:22:41.337Z,2.90
2018-08-22T15:25:09.797Z,3.20
2018-08-22T15:27:38.395Z,2.73
2018-08-22T15:30:07.812Z,3.40
2018-08-22T15:32:36.248Z,3.07
2018-08-22T15:35:04.710Z,3.10
2018-08-22T15:37:33.194Z,3.33
2018-08-22T15:40:01.628Z,2.77
2018-08-22T15:42:30.080Z,3.10
2018-08-22T15:44:58.496Z,3.50
2018-08-22T15:47:27.313Z,3.00
2018-08-22T15:49:55.676Z,3.10
2018-08-22T15:52:24.131Z,2.87
2018-08-22T15:55:05.886Z,3.03
2018-08-22T15:57:49.806Z,2.90
2018-08-22T16:00:47.258Z,2.70
2018-08-22T16:03:15.698Z,3.20
2018-08-22T16:05:45.116Z,3.50
2018-08-22T16:08:14.380Z,3.10
2018-08-22T16:10:42.826Z,2.73
2018-08-22T16:13:17.263Z,3.10
2018-08-22T16:15:46.583Z,3.00
2018-08-22T16:18:15.090Z,4.07
2018-08-22T16:20:52.211Z,3.60
2018-08-22T16:23:20.739Z,3.27
2018-08-22T16:25:50.348Z,3.73
2018-08-22T16:28:18.912Z,4.00
2018-08-22T16:30:56.771Z,3.97
2018-08-22T16:33:15.875Z,4.23
2018-08-22T16:35:44.632Z,5.13
2018-08-22T16:38:14.108Z,3.33
2018-08-22T16:40:49.143Z,4.03
2018-08-22T16:44:20.983Z,4.10
2018-08-22T16:46:49.398Z,3.77
2018-08-22T16:49:17.882Z,3.50
2018-08-22T16:51:46.355Z,3.67
2018-08-22T16:54:14.813Z,3.60
2018-08-22T16:56:43.231Z,3.43
2018-08-22T16:59:12.878Z,3.30
2018-08-22T17:01:47.293Z,3.77
2018-08-22T17:04:15.728Z,3.90
2018-08-22T17:06:44.210Z,3.70
2018-08-22T17:09:13.359Z,4.00
2018-08-22T17:11:42.894Z,3.77
2018-08-22T17:14:11.387Z,3.80
2018-08-22T17:16:39.867Z,3.83
2018-08-22T17:19:08.350Z,4.13
2018-08-22T17:21:36.802Z,3.73
2018-08-22T17:24:05.351Z,3.90
2018-08-22T17:26:33.812Z,3.90
2018-08-22T17:29:02.313Z,3.83
2018-08-22T17:31:31.067Z,4.30
2018-08-22T17:34:01.214Z,4.13
2018-08-22T17:36:29.733Z,5.47
2018-08-22T17:38:59.421Z,5.23
2018-08-22T17:41:28.989Z,5.50
2018-08-22T17:44:08.252Z,5.67
2018-08-22T17:46:38.091Z,6.07
2018-08-22T17:49:06.587Z,6.10
2018-08-22T17:51:42.635Z,5.63
2018-08-22T17:54:11.200Z,4.30
2018-08-22T17:56:39.664Z,4.30
2018-08-22T17:59:08.188Z,4.43
2018-08-22T18:01:36.653Z,4.13
2018-08-22T18:04:05.111Z,4.50
2018-08-22T18:06:33.596Z,4.47
2018-08-22T18:09:02.872Z,5.00
2018-08-22T18:11:31.659Z,4.50
2018-08-22T18:14:00.198Z,4.70
2018-08-22T18:16:28.640Z,5.07
2018-08-22T18:18:57.143Z,4.90
2018-08-22T18:21:32.655Z,4.50
2018-08-22T18:24:01.522Z,4.27
2018-08-22T18:26:30.018Z,4.27
2018-08-22T18:28:58.535Z,4.50
2018-08-22T18:31:27.018Z,4.13
2018-08-22T18:33:59.493Z,4.90
2018-08-22T18:36:29.099Z,4.70
2018-08-22T18:39:02.583Z,5.13
2018-08-22T18:41:31.077Z,4.90
2018-08-22T18:43:59.874Z,4.60
2018-08-22T18:46:28.500Z,4.33
2018-08-22T18:48:56.966Z,4.67
2018-08-22T18:51:25.456Z,4.50
2018-08-22T18:53:53.915Z,3.90
2018-08-22T18:56:22.880Z,4.60
2018-08-22T18:58:51.347Z,4.97
2018-08-22T19:01:19.910Z,4.50
2018-08-22T19:03:48.327Z,4.13
2018-08-22T19:06:16.767Z,4.50
2018-08-22T19:08:45.179Z,4.47
2018-08-22T19:11:13.719Z,4.30
2018-08-22T19:13:42.119Z,4.63
2018-08-22T19:16:11.421Z,4.40
2018-08-22T19:18:40.471Z,4.60
2018-08-22T19:21:10.140Z,4.40
2018-08-22T19:23:38.666Z,4.60
2018-08-22T19:26:07.905Z,4.90
2018-08-22T19:28:53.011Z,4.70
2018-08-22T19:31:22.018Z,4.53
2018-08-22T19:33:51.077Z,4.90
2018-08-22T19:36:20.305Z,4.50
2018-08-22T19:38:48.721Z,5.37
2018-08-22T19:41:24.771Z,4.87
2018-08-22T19:43:53.325Z,5.10
2018-08-22T19:46:21.943Z,5.50
2018-08-22T19:48:50.617Z,4.17
2018-08-22T19:51:19.210Z,4.77
2018-08-22T19:54:00.078Z,5.70
2018-08-22T19:56:29.099Z,5.97
2018-08-22T19:58:57.608Z,5.20
2018-08-22T20:01:26.212Z,4.60
2018-08-22T20:03:57.092Z,4.87
2018-08-22T20:06:26.262Z,5.40
2018-08-22T20:08:56.363Z,4.97
2018-08-22T20:11:25.142Z,5.13
2018-08-22T20:13:58.432Z,5.13
2018-08-22T20:16:26.932Z,5.30
2018-08-22T20:19:03.144Z,5.40
2018-08-22T20:21:33.127Z,5.27
2018-08-22T20:24:02.822Z,4.67
2018-08-22T20:26:31.907Z,5.03
2018-08-22T20:29:01.491Z,5.33
2018-08-22T20:31:30.081Z,5.57
2018-08-22T20:34:11.014Z,5.27
2018-08-22T20:36:39.670Z,4.23
2018-08-22T20:39:10.741Z,5.57
2018-08-22T20:41:39.784Z,5.23
2018-08-22T20:44:11.820Z,4.80
2018-08-22T20:46:41.807Z,4.80
2018-08-22T20:49:10.287Z,6.00
2018-08-22T20:51:38.791Z,4.63
2018-08-22T20:54:08.683Z,4.80
2018-08-22T20:56:39.894Z,4.90
2018-08-22T20:59:08.422Z,4.50
2018-08-22T21:01:36.890Z,4.97
2018-08-22T21:04:05.403Z,4.87
2018-08-22T21:06:33.996Z,4.70
2018-08-22T21:09:02.495Z,4.77
2018-08-22T21:11:30.955Z,4.87
2018-08-22T21:13:59.455Z,5.30
2018-08-22T21:16:27.944Z,5.13
2018-08-22T21:18:56.449Z,4.60
2018-08-22T21:21:25.238Z,4.53
2018-08-22T21:23:53.711Z,4.43
2018-08-22T21:26:35.302Z,4.37
2018-08-22T21:29:04.070Z,5.13
2018-08-22T21:31:32.872Z,4.80
2018-08-22T21:34:06.992Z,5.10
2018-08-22T21:36:36.515Z,4.90
2018-08-22T21:39:11.093Z,4.90
2018-08-22T21:41:40.086Z,4.57
2018-08-22T21:44:08.569Z,4.67
2018-08-22T21:46:37.316Z,4.50
2018-08-22T21:49:12.527Z,4.70
2018-08-22T21:51:41.607Z,4.93
2018-08-22T21:54:11.331Z,4.87
2018-08-22T21:56:40.210Z,5.27
2018-08-22T21:59:09.418Z,5.60
2018-08-22T22:01:46.100Z,4.70
2018-08-22T22:04:17.358Z,4.70
2018-08-22T22:06:45.790Z,5.70
2018-08-22T22:09:15.878Z,5.40
2018-08-22T22:11:44.829Z,5.63
2018-08-22T22:14:18.587Z,5.13
2018-08-22T22:16:47.022Z,5.07
2018-08-22T22:19:15.490Z,4.63
2018-08-22T22:21:44.042Z,4.37
2018-08-22T22:24:12.512Z,4.30
2018-08-22T22:26:41.032Z,5.10
2018-08-22T22:29:09.461Z,4.67
2018-08-22T22:31:37.927Z,4.20
2018-08-22T22:34:06.430Z,5.03
2018-08-22T22:36:34.890Z,4.93
2018-08-22T22:39:03.688Z,4.70
2018-08-22T22:41:32.190Z,4.70
2018-08-22T22:44:00.630Z,4.80
2018-08-22T22:46:29.071Z,4.73
2018-08-22T22:48:57.625Z,4.10
2018-08-22T22:51:26.066Z,5.07
2018-08-22T22:53:54.520Z,4.90
2018-08-22T22:56:22.972Z,4.67
2018-08-22T22:58:51.426Z,5.27
2018-08-22T23:01:19.864Z,4.10
2018-08-22T23:03:48.270Z,5.73
2018-08-22T23:06:16.740Z,4.77
2018-08-22T23:08:45.203Z,4.60
2018-08-22T23:11:13.667Z,4.97
2018-08-22T23:13:42.163Z,5.10
2018-08-22T23:16:10.634Z,4.63
2018-08-22T23:18:39.157Z,5.37
2018-08-22T23:21:07.611Z,4.93
2018-08-22T23:23:37.000Z,4.67
2018-08-22T23:26:14.032Z,4.63
2018-08-22T23:28:43.700Z,4.93
2018-08-22T23:31:15.083Z,5.17
2018-08-22T23:33:43.525Z,4.63
2018-08-22T23:36:11.969Z,4.50
2018-08-22T23:38:40.430Z,5.70
2018-08-22T23:41:08.884Z,5.20
2018-08-22T23:43:42.684Z,4.63
2018-08-22T23:46:11.975Z,5.40
2018-08-22T23:48:40.944Z,5.50
2018-08-22T23:51:14.691Z,5.07
2018-08-22T23:53:46.708Z,5.47
2018-08-22T23:56:21.327Z,5.17
2018-08-22T23:58:50.515Z,5.20
